Time;durP1;ratioP1;P1;durP2;ratioP2;P2;SDS_P1;SDS_P2;PMS_P1;PMS_P2;Temp;Humidity;BMP_temperature;BMP_pressure;BME280_temperature;BME280_humidity;BME280_pressure;Samples;Min_cycle;Max_cycle;Signal;HPM_P1;HPM_P2
2023/08/24 00:01:55;;;;;;;39.75;37.75;;;;;;;25.51;100.00;100875.63;5008428;28;20064;-86
2023/08/24 00:04:22;;;;;;;34.90;33.00;;;;;;;25.49;100.00;100883.25;5007407;28;20435;-85
2023/08/24 00:06:49;;;;;;;37.92;35.88;;;;;;;25.04;100.00;100882.97;5007635;28;20496;-86
2023/08/24 00:09:16;;;;;;;46.40;44.10;;;;;;;25.40;100.00;100885.06;5010326;28;20046;-86
2023/08/24 00:11:43;;;;;;;41.42;39.33;;;;;;;25.51;100.00;100881.06;5008320;28;20404;-86
2023/08/24 00:14:10;;;;;;;39.55;37.47;;;;;;;25.48;100.00;100883.59;5008748;28;20435;-78
2023/08/24 00:16:37;;;;;;;52.80;50.30;;;;;;;25.42;100.00;100880.16;5006845;28;20441;-86
2023/08/24 00:19:05;;;;;;;46.08;43.67;;;;;;;25.18;100.00;100882.25;5009370;28;20056;-86
2023/08/24 00:21:32;;;;;;;42.42;40.33;;;;;;;24.90;100.00;100882.13;5010707;28;20400;-86
2023/08/24 00:24:00;;;;;;;42.83;40.63;;;;;;;24.71;100.00;100889.53;5009064;28;20050;-79
2023/08/24 00:26:27;;;;;;;44.53;42.33;;;;;;;24.69;100.00;100884.41;5008415;28;20045;-85
2023/08/24 00:28:53;;;;;;;40.20;38.00;;;;;;;24.86;100.00;100902.84;5007174;28;20127;-85
2023/08/24 00:31:20;;;;;;;36.55;34.72;;;;;;;24.89;100.00;100904.97;5007629;28;20057;-86
2023/08/24 00:33:47;;;;;;;28.98;27.38;;;;;;;24.96;100.00;100910.03;5009423;28;20050;-86
2023/08/24 00:36:17;;;;;;;41.97;39.88;;;;;;;24.80;100.00;100920.34;5007802;28;20046;-86
2023/08/24 00:38:45;;;;;;;43.47;41.17;;;;;;;25.28;100.00;100911.94;5006679;28;20041;-86
2023/08/24 00:41:13;;;;;;;38.80;36.80;;;;;;;25.36;100.00;100903.91;5007926;28;20050;-86
2023/08/24 00:43:41;;;;;;;37.55;35.65;;;;;;;25.39;100.00;100910.66;5009638;28;20692;-86
2023/08/24 00:46:08;;;;;;;45.35;43.15;;;;;;;24.27;100.00;100923.25;5008350;28;20108;-85
2023/08/24 00:48:34;;;;;;;54.10;51.40;;;;;;;24.00;100.00;100927.44;5008813;28;20490;-85
2023/08/24 00:51:02;;;;;;;58.30;55.30;;;;;;;24.49;100.00;100930.88;5007591;28;20042;-86
2023/08/24 00:53:32;;;;;;;57.65;54.78;;;;;;;25.05;100.00;100921.81;5009486;28;20093;-85
2023/08/24 00:56:02;;;;;;;58.83;55.95;;;;;;;24.98;100.00;100926.84;5011228;28;20545;-85
2023/08/24 00:58:32;;;;;;;57.55;54.65;;;;;;;24.61;100.00;100923.09;5009302;28;20045;-85
2023/08/24 01:00:59;;;;;;;68.97;66.03;;;;;;;24.86;100.00;100921.88;5006646;28;20495;-85
2023/08/24 01:03:26;;;;;;;50.55;48.25;;;;;;;24.48;100.00;100907.53;5008943;28;20054;-86
2023/08/24 01:05:53;;;;;;;54.35;51.78;;;;;;;23.32;100.00;100912.97;5006348;28;20092;-86
2023/08/24 01:08:25;;;;;;;61.20;58.10;;;;;;;23.79;100.00;100907.09;5007074;28;20495;-85
2023/08/24 01:11:00;;;;;;;56.55;53.75;;;;;;;24.03;100.00;100907.06;5010272;28;20046;-85
2023/08/24 01:13:33;;;;;;;59.55;56.65;;;;;;;23.73;100.00;100912.56;5010050;28;20056;-85
2023/08/24 01:16:03;;;;;;;;;;;;;;;24.03;100.00;100921.44;5008048;28;20080;-85
2023/08/24 01:18:32;;;;;;;49.10;46.50;;;;;;;24.00;100.00;100916.59;5010094;28;19929;-85
2023/08/24 01:20:59;;;;;;;53.05;50.35;;;;;;;24.04;100.00;100898.63;5007948;28;20053;-85
2023/08/24 01:23:37;;;;;;;52.95;50.35;;;;;;;24.17;100.00;100905.22;5009081;28;20166;-85
2023/08/24 01:26:12;;;;;;;41.72;39.63;;;;;;;23.57;100.00;100902.97;5005845;28;20100;-78
2023/08/24 01:28:39;;;;;;;41.10;38.90;;;;;;;23.44;100.00;100903.66;5004604;28;20144;-79
2023/08/24 01:31:07;;;;;;;46.85;44.55;;;;;;;23.79;100.00;100905.19;5006252;28;20064;-79
2023/08/24 01:33:34;;;;;;;47.95;45.55;;;;;;;24.02;100.00;100897.28;5004771;28;20053;-86
2023/08/24 01:36:03;;;;;;;42.40;40.10;;;;;;;24.16;100.00;100887.34;5003232;28;20439;-85
2023/08/24 01:38:31;;;;;;;45.95;43.55;;;;;;;23.92;100.00;100887.41;5010225;28;20507;-85
2023/08/24 01:41:05;;;;;;;45.33;42.83;;;;;;;23.29;100.00;100888.34;5009406;28;20046;-85
2023/08/24 01:43:35;;;;;;;43.13;40.65;;;;;;;23.57;100.00;100892.13;5005633;28;20046;-84
2023/08/24 01:46:05;;;;;;;47.53;45.08;;;;;;;23.40;100.00;100892.59;5006581;28;20049;-84
2023/08/24 01:48:32;;;;;;;53.17;50.28;;;;;;;23.26;100.00;100889.72;5009752;28;20049;-84
2023/08/24 01:51:01;;;;;;;45.92;43.47;;;;;;;23.39;100.00;100884.72;5008266;28;20118;-83
2023/08/24 01:53:29;;;;;;;42.38;40.20;;;;;;;22.97;100.00;100884.34;5009086;28;20049;-78
2023/08/24 01:55:55;;;;;;;50.95;48.55;;;;;;;23.46;100.00;100883.28;5007784;28;20065;-78
2023/08/24 01:58:22;;;;;;;55.70;53.05;;;;;;;22.74;100.00;100885.84;5006355;28;20057;-79
2023/08/24 02:00:51;;;;;;;62.00;59.00;;;;;;;23.05;100.00;100881.00;5002237;28;20519;-78
2023/08/24 02:03:18;;;;;;;71.50;68.18;;;;;;;23.03;100.00;100890.53;5004422;28;20042;-84
2023/08/24 02:05:44;;;;;;;85.03;81.53;;;;;;;23.08;100.00;100896.69;5009372;28;20042;-84
2023/08/24 02:08:11;;;;;;;83.55;80.15;;;;;;;23.31;100.00;100884.28;5005952;28;20050;-78
2023/08/24 02:10:38;;;;;;;81.90;78.47;;;;;;;23.13;100.00;100881.50;5002738;28;20079;-78
2023/08/24 02:13:05;;;;;;;66.40;63.67;;;;;;;23.25;100.00;100874.56;5005707;28;20046;-78
2023/08/24 02:15:32;;;;;;;63.92;61.25;;;;;;;23.23;100.00;100879.47;5006522;28;20511;-84
2023/08/24 02:18:04;;;;;;;70.10;67.18;;;;;;;22.89;100.00;100879.50;5005163;28;20053;-84
2023/08/24 02:20:31;;;;;;;70.65;67.75;;;;;;;22.72;100.00;100877.19;5005814;28;20050;-84
2023/08/24 02:22:58;;;;;;;54.58;52.10;;;;;;;22.90;100.00;100880.31;5007319;28;20144;-84
2023/08/24 02:25:24;;;;;;;62.70;60.00;;;;;;;22.89;100.00;100889.53;5005940;28;20057;-84
2023/08/24 02:27:51;;;;;;;50.65;48.35;;;;;;;22.15;100.00;100898.41;5006681;28;20057;-84
2023/08/24 02:30:18;;;;;;;55.00;52.50;;;;;;;22.54;100.00;100886.81;5005358;28;20068;-84
2023/08/24 02:32:45;;;;;;;56.35;53.45;;;;;;;22.61;100.00;100886.50;5005265;28;20046;-84
2023/08/24 02:35:14;;;;;;;47.85;45.30;;;;;;;21.81;100.00;100900.97;5006483;28;20439;-83
2023/08/24 02:37:40;;;;;;;53.30;50.70;;;;;;;21.85;100.00;100899.34;5006907;28;20495;-83
2023/08/24 02:40:09;;;;;;;116.57;111.18;;;;;;;21.93;100.00;100895.25;5006094;28;20058;-84
2023/08/24 02:42:36;;;;;;;90.35;86.15;;;;;;;22.15;100.00;100897.59;5005713;28;20046;-84
2023/08/24 02:45:04;;;;;;;90.25;86.05;;;;;;;22.11;100.00;100891.09;4966656;28;20053;-84
2023/08/24 02:47:31;;;;;;;87.40;83.18;;;;;;;22.49;100.00;100889.56;5029851;28;20126;-83
2023/08/24 02:49:57;;;;;;;65.43;61.92;;;;;;;22.53;100.00;100889.81;5026672;28;20058;-84
2023/08/24 02:52:26;;;;;;;63.03;59.70;;;;;;;22.38;100.00;100893.41;5026601;28;20128;-78
2023/08/24 02:54:52;;;;;;;41.88;39.47;;;;;;;22.26;100.00;100893.75;5026420;28;20515;-84
2023/08/24 02:57:19;;;;;;;43.42;41.13;;;;;;;22.36;100.00;100892.88;5024069;28;20454;-78
2023/08/24 02:59:46;;;;;;;47.92;45.70;;;;;;;22.57;100.00;100896.25;5026056;28;20442;-78
2023/08/24 03:02:13;;;;;;;53.17;50.08;;;;;;;22.50;100.00;100896.59;5023938;28;20054;-78
2023/08/24 03:04:40;;;;;;;42.92;40.72;;;;;;;22.31;100.00;100904.56;5023625;28;20758;-84
2023/08/24 03:07:08;;;;;;;51.17;48.65;;;;;;;22.05;100.00;100898.44;5024268;28;20042;-84
2023/08/24 03:09:36;;;;;;;40.58;38.58;;;;;;;21.92;100.00;100916.06;5020293;28;20060;-78
2023/08/24 03:12:04;;;;;;;53.90;51.30;;;;;;;21.41;100.00;100916.22;5023455;28;20057;-78
2023/08/24 03:14:31;;;;;;;58.83;55.90;;;;;;;21.41;100.00;100918.13;5024410;28;20518;-84
2023/08/24 03:16:58;;;;;;;50.80;48.38;;;;;;;21.63;100.00;100920.50;5025168;28;20045;-84
2023/08/24 03:19:24;;;;;;;44.67;42.55;;;;;;;21.58;100.00;100921.34;5028094;28;20076;-84
2023/08/24 03:21:51;;;;;;;62.67;59.88;;;;;;;21.91;100.00;100919.88;5025945;28;20506;-84
2023/08/24 03:24:19;;;;;;;55.47;53.00;;;;;;;21.70;100.00;100913.72;5027096;28;20056;-84
2023/08/24 03:26:47;;;;;;;52.95;49.38;;;;;;;21.84;100.00;100924.75;5024326;28;20049;-84
2023/08/24 03:29:14;;;;;;;61.80;59.00;;;;;;;21.37;100.00;100922.47;5025456;28;20048;-84
2023/08/24 03:31:40;;;;;;;48.60;46.40;;;;;;;21.22;100.00;100926.78;5024812;28;20049;-83
2023/08/24 03:34:07;;;;;;;47.22;44.92;;;;;;;21.52;100.00;100930.53;5028819;28;20042;-84
2023/08/24 03:36:34;;;;;;;38.55;36.38;;;;;;;21.37;100.00;100935.97;5027603;28;20060;-83
2023/08/24 03:39:01;;;;;;;35.40;33.28;;;;;;;21.75;100.00;100933.72;5028469;28;20526;-84
2023/08/24 03:41:28;;;;;;;29.33;27.77;;;;;;;21.87;100.00;100937.72;5028143;28;20045;-84
2023/08/24 03:43:56;;;;;;;37.00;35.30;;;;;;;21.72;100.00;100941.31;5028109;28;20442;-84
2023/08/24 03:46:24;;;;;;;34.47;32.83;;;;;;;21.87;100.00;100939.63;5027405;28;20060;-84
2023/08/24 03:48:50;;;;;;;31.42;29.77;;;;;;;21.90;100.00;100942.56;5027831;28;20041;-84
2023/08/24 03:51:18;;;;;;;31.13;29.50;;;;;;;21.89;100.00;100932.84;5029310;28;20430;-84
2023/08/24 03:53:45;;;;;;;31.40;29.85;;;;;;;21.86;100.00;100932.59;5027822;28;20045;-80
2023/08/24 03:56:11;;;;;;;31.60;30.08;;;;;;;21.51;100.00;100942.41;5028545;28;20089;-80
2023/08/24 03:58:38;;;;;;;33.03;31.13;;;;;;;22.12;100.00;100938.72;5027494;28;20057;-80
2023/08/24 04:01:11;;;;;;;33.63;32.03;;;;;;;21.60;100.00;100945.38;5028951;28;20699;-79
2023/08/24 04:03:38;;;;;;;34.22;32.67;;;;;;;23.92;100.00;100941.63;5023872;28;20038;-79
2023/08/24 04:06:05;;;;;;;36.72;34.92;;;;;;;26.60;100.00;100919.31;5026809;28;20053;-82
2023/08/24 04:08:32;;;;;;;34.90;33.17;;;;;;;27.48;100.00;100924.16;5024758;28;20137;-76
2023/08/24 04:10:59;;;;;;;35.58;33.28;;;;;;;27.88;100.00;100920.63;5026160;28;20045;-77
2023/08/24 04:13:26;;;;;;;33.45;31.65;;;;;;;23.43;100.00;100935.38;5027560;28;20056;-76
2023/08/24 04:15:52;;;;;;;30.52;29.02;;;;;;;22.71;100.00;100929.72;5019431;28;20454;-76
2023/08/24 04:18:21;;;;;;;34.25;32.65;;;;;;;22.63;100.00;100936.56;5020492;28;20462;-76
2023/08/24 04:20:47;;;;;;;37.05;34.88;;;;;;;22.63;100.00;100936.56;5010100;28;20547;-76
2023/08/24 04:23:16;;;;;;;33.00;31.40;;;;;;;22.44;100.00;100941.00;5018498;28;20042;-76
2023/08/24 04:25:43;;;;;;;32.35;30.83;;;;;;;24.04;100.00;100939.31;5016647;28;20050;-74
2023/08/24 04:28:09;;;;;;;32.15;30.45;;;;;;;26.73;100.00;100937.50;5019179;28;20082;-76
2023/08/24 04:30:36;;;;;;;40.25;38.30;;;;;;;22.86;100.00;100948.56;5016663;28;20442;-76
2023/08/24 04:33:04;;;;;;;24.80;23.30;;;;;;;22.74;100.00;100950.81;5014898;28;20050;-76
2023/08/24 04:35:35;;;;;;;24.92;23.02;;;;;;;22.72;100.00;100952.19;5018318;28;20550;-76
2023/08/24 04:38:02;;;;;;;24.50;22.67;;;;;;;22.77;100.00;100954.88;5015908;28;20069;-76
2023/08/24 04:40:47;;;;;;;24.15;22.55;;;;;;;22.92;100.00;100946.63;5017526;28;20057;-76
2023/08/24 04:43:15;;;;;;;24.35;22.85;;;;;;;23.02;100.00;100952.00;5020524;28;20045;-76
2023/08/24 04:45:41;;;;;;;32.17;30.48;;;;;;;22.90;100.00;100951.50;5024044;28;20049;-76
2023/08/24 04:48:08;;;;;;;25.88;24.25;;;;;;;22.86;100.00;100951.28;5022423;28;20049;-76
2023/08/24 04:50:36;;;;;;;27.08;24.58;;;;;;;23.05;100.00;100950.63;5022168;28;20112;-76
2023/08/24 04:53:03;;;;;;;23.73;22.23;;;;;;;23.04;100.00;100955.22;5016899;28;20049;-82
2023/08/24 04:55:30;;;;;;;23.23;21.80;;;;;;;23.08;100.00;100952.75;5025282;28;20053;-76
2023/08/24 04:57:57;;;;;;;29.20;26.60;;;;;;;23.22;100.00;100956.44;5023575;28;20053;-82
2023/08/24 05:00:24;;;;;;;35.28;31.98;;;;;;;23.21;100.00;100957.53;5020428;28;20128;-82
2023/08/24 05:02:51;;;;;;;34.13;30.73;;;;;;;23.28;100.00;100954.50;5018813;28;20050;-81
2023/08/24 05:05:18;;;;;;;21.65;20.15;;;;;;;23.45;100.00;100960.28;5018682;28;20046;-76
2023/08/24 05:07:46;;;;;;;23.33;21.63;;;;;;;23.48;100.00;100958.88;5020806;28;20037;-76
2023/08/24 05:10:13;;;;;;;25.80;24.20;;;;;;;23.53;100.00;100956.13;5014642;28;20050;-76
2023/08/24 05:12:40;;;;;;;24.00;22.40;;;;;;;23.67;100.00;100961.69;5021946;28;20420;-76
2023/08/24 05:15:07;;;;;;;24.55;22.85;;;;;;;23.54;100.00;100961.28;5015811;28;20057;-76
2023/08/24 05:17:34;;;;;;;23.17;21.73;;;;;;;23.81;100.00;100956.41;5015861;28;20060;-82
2023/08/24 05:20:01;;;;;;;23.77;22.17;;;;;;;24.01;100.00;100961.59;5014462;28;20049;-82
2023/08/24 05:22:30;;;;;;;24.70;23.20;;;;;;;24.25;100.00;100966.19;5019088;28;20061;-82
2023/08/24 05:25:00;;;;;;;26.58;24.98;;;;;;;24.43;100.00;100965.44;5018878;28;20053;-82
2023/08/24 05:27:28;;;;;;;27.40;25.55;;;;;;;24.53;100.00;100970.69;5020600;28;20507;-82
2023/08/24 05:29:55;;;;;;;24.83;23.20;;;;;;;24.66;100.00;100966.44;5018848;28;20486;-82
2023/08/24 05:32:22;;;;;;;29.55;26.08;;;;;;;24.75;100.00;100967.41;5020783;28;20057;-82
2023/08/24 05:34:49;;;;;;;24.77;23.17;;;;;;;24.98;100.00;100967.59;5038427;28;20052;-82
2023/08/24 05:37:16;;;;;;;23.77;22.27;;;;;;;25.19;100.00;100968.09;5031992;28;20042;-82
2023/08/24 05:39:43;;;;;;;24.48;22.98;;;;;;;25.08;100.00;100962.81;5028431;28;20042;-82
2023/08/24 05:42:11;;;;;;;23.67;22.27;;;;;;;25.34;100.00;100962.38;5034593;28;20057;-82
2023/08/24 05:44:38;;;;;;;21.50;20.20;;;;;;;25.32;100.00;100961.88;5029686;28;20052;-82
2023/08/24 05:47:05;;;;;;;19.60;18.30;;;;;;;25.42;100.00;100959.00;5020098;28;20108;-82
2023/08/24 05:49:32;;;;;;;23.00;21.60;;;;;;;25.59;100.00;100966.53;5020048;28;20049;-76
2023/08/24 05:51:59;;;;;;;23.23;21.63;;;;;;;25.73;100.00;100963.84;5021218;28;20060;-82
2023/08/24 05:54:26;;;;;;;22.92;21.33;;;;;;;25.49;100.00;100964.84;5015898;28;20053;-76
2023/08/24 05:56:52;;;;;;;25.38;23.88;;;;;;;25.78;100.00;100977.34;5017819;28;20053;-76
2023/08/24 05:59:21;;;;;;;26.02;24.52;;;;;;;25.96;100.00;100972.94;5022492;28;20511;-76
2023/08/24 06:01:48;;;;;;;24.83;23.33;;;;;;;25.29;100.00;100973.34;5018113;28;20046;-76
2023/08/24 06:04:14;;;;;;;24.23;22.40;;;;;;;25.76;100.00;100977.66;5019922;28;20041;-76
2023/08/24 06:06:43;;;;;;;21.40;20.00;;;;;;;26.20;100.00;100976.25;5017041;28;20045;-76
2023/08/24 06:09:09;;;;;;;25.77;24.27;;;;;;;26.33;100.00;100973.81;5017782;28;20050;-76
2023/08/24 06:11:37;;;;;;;24.65;23.15;;;;;;;26.52;100.00;100974.50;5017336;28;20053;-76
2023/08/24 06:14:03;;;;;;;22.60;21.30;;;;;;;26.43;100.00;100970.88;5019051;28;20049;-76
2023/08/24 06:16:31;;;;;;;25.58;24.08;;;;;;;26.86;100.00;100963.06;5017924;28;20535;-76
2023/08/24 06:19:01;;;;;;;26.83;25.33;;;;;;;27.19;100.00;100965.56;5016671;28;20046;-76
2023/08/24 06:21:28;;;;;;;25.08;23.67;;;;;;;27.26;100.00;100970.56;5016280;28;20054;-76
2023/08/24 06:23:55;;;;;;;24.98;23.48;;;;;;;27.38;100.00;100966.16;5021001;28;20498;-82
2023/08/24 06:26:21;;;;;;;23.10;21.50;;;;;;;27.36;100.00;100978.50;5012111;28;20459;-82
2023/08/24 06:28:48;;;;;;;24.17;22.67;;;;;;;27.41;100.00;100970.16;5022395;28;20513;-82
2023/08/24 06:31:16;;;;;;;22.02;20.52;;;;;;;26.78;100.00;100984.78;5033754;28;20042;-82
2023/08/24 06:33:44;;;;;;;20.52;19.02;;;;;;;27.27;100.00;100983.09;5026398;28;20111;-76
2023/08/24 06:36:12;;;;;;;22.48;20.98;;;;;;;27.59;100.00;100976.50;5016935;28;20046;-77
2023/08/24 06:38:39;;;;;;;20.10;18.70;;;;;;;28.04;100.00;100981.84;5015429;28;20049;-77
2023/08/24 06:41:05;;;;;;;23.33;21.65;;;;;;;28.08;100.00;100972.72;5017728;28;20049;-76
2023/08/24 06:43:32;;;;;;;21.40;19.90;;;;;;;27.63;100.00;100983.75;5017393;28;20503;-76
2023/08/24 06:45:59;;;;;;;21.38;19.98;;;;;;;28.12;100.00;100980.25;5018525;28;20046;-82
2023/08/24 06:48:26;;;;;;;20.25;18.85;;;;;;;28.34;100.00;100979.34;5019588;28;20064;-76
2023/08/24 06:50:54;;;;;;;21.50;20.00;;;;;;;28.49;100.00;100976.97;5017115;28;20053;-82
2023/08/24 06:53:22;;;;;;;22.50;21.00;;;;;;;28.64;100.00;100969.41;5024565;28;20045;-82
2023/08/24 06:55:55;;;;;;;22.08;20.60;;;;;;;28.68;100.00;100970.38;5028637;28;20077;-77
2023/08/24 06:58:22;;;;;;;22.25;20.65;;;;;;;28.78;100.00;100983.72;5024440;28;20049;-77
2023/08/24 07:00:50;;;;;;;23.15;21.65;;;;;;;28.60;100.00;100979.41;5024211;28;20498;-76
2023/08/24 07:03:17;;;;;;;24.40;22.00;;;;;;;28.90;100.00;100977.59;5024586;28;20489;-82
2023/08/24 07:05:44;;;;;;;20.50;19.00;;;;;;;28.57;100.00;100986.31;5024140;28;20561;-82
2023/08/24 07:08:13;;;;;;;21.65;20.25;;;;;;;28.61;100.00;100995.44;5021030;28;20065;-82
2023/08/24 07:10:40;;;;;;;21.67;20.08;;;;;;;28.83;100.00;100991.75;5020090;28;20081;-82
2023/08/24 07:13:09;;;;;;;22.90;21.30;;;;;;;29.07;100.00;100991.25;5022759;28;20042;-82
2023/08/24 07:15:36;;;;;;;23.70;22.00;;;;;;;29.57;100.00;100987.94;5018613;28;20077;-80
2023/08/24 07:18:05;;;;;;;23.77;21.98;;;;;;;30.11;100.00;100990.13;5019036;28;20458;-80
2023/08/24 07:20:33;;;;;;;23.30;21.40;;;;;;;30.23;100.00;100984.75;5023859;28;20446;-75
2023/08/24 07:23:00;;;;;;;23.45;21.75;;;;;;;30.44;100.00;100992.16;5018144;28;20078;-75
2023/08/24 07:25:30;;;;;;;23.45;21.80;;;;;;;30.45;100.00;100971.88;5017692;28;20511;-77
2023/08/24 07:27:59;;;;;;;21.50;19.90;;;;;;;30.28;100.00;100981.78;5026654;28;20430;-77
2023/08/24 07:30:26;;;;;;;20.33;18.83;;;;;;;30.06;100.00;100985.63;5019611;28;20501;-82
2023/08/24 07:32:53;;;;;;;21.65;20.15;;;;;;;30.25;100.00;100981.66;5019552;28;20456;-82
2023/08/24 07:35:21;;;;;;;21.35;19.85;;;;;;;30.52;100.00;100977.59;5017246;28;20046;-82
2023/08/24 07:37:48;;;;;;;19.52;18.08;;;;;;;30.75;100.00;100969.84;5018648;28;20434;-80
2023/08/24 07:40:15;;;;;;;21.13;19.63;;;;;;;30.90;100.00;100971.97;5019901;28;20049;-80
2023/08/24 07:42:48;;;;;;;20.30;18.80;;;;;;;31.14;100.00;100971.25;5019301;28;20056;-80
2023/08/24 07:45:15;;;;;;;19.20;17.80;;;;;;;30.65;100.00;100972.97;5012188;28;20089;-80
2023/08/24 07:47:42;;;;;;;21.10;19.70;;;;;;;30.98;100.00;100971.06;5026777;28;20054;-81
2023/08/24 07:50:10;;;;;;;20.65;19.15;;;;;;;31.48;100.00;100966.53;5027987;28;20049;-80
2023/08/24 07:52:37;;;;;;;20.00;18.50;;;;;;;31.65;100.00;100963.59;5026505;28;20045;-81
2023/08/24 07:55:06;;;;;;;22.20;20.70;;;;;;;31.80;100.00;100958.53;5022863;28;20056;-80
2023/08/24 07:57:33;;;;;;;23.38;21.77;;;;;;;31.93;100.00;100960.97;5020800;28;20128;-80
2023/08/24 08:00:02;;;;;;;19.77;18.38;;;;;;;31.29;100.00;100963.50;5021628;28;20045;-80
2023/08/24 08:02:32;;;;;;;20.08;18.58;;;;;;;31.25;100.00;100958.69;5020811;28;20053;-81
2023/08/24 08:05:02;;;;;;;19.40;18.00;;;;;;;31.50;100.00;100953.28;5021794;28;20510;-81
2023/08/24 08:07:29;;;;;;;20.08;18.67;;;;;;;31.31;100.00;100955.72;5018972;28;20076;-80
2023/08/24 08:09:56;;;;;;;20.30;18.80;;;;;;;31.55;100.00;100953.03;5019453;28;20045;-80
2023/08/24 08:12:23;;;;;;;20.42;18.92;;;;;;;30.27;100.00;100958.28;5018921;28;20567;-75
2023/08/24 08:14:50;;;;;;;20.23;18.75;;;;;;;31.02;100.00;100955.56;5017968;28;20050;-75
2023/08/24 08:17:18;;;;;;;19.75;18.35;;;;;;;31.76;100.00;100941.94;5016648;28;20041;-75
2023/08/24 08:19:45;;;;;;;20.48;18.88;;;;;;;31.92;100.00;100953.06;5018914;28;20049;-75
2023/08/24 08:22:13;;;;;;;21.15;19.60;;;;;;;31.87;100.00;100948.56;5020630;28;20459;-75
2023/08/24 08:24:40;;;;;;;21.02;19.42;;;;;;;31.31;100.00;100950.25;5020534;28;20042;-75
2023/08/24 08:27:07;;;;;;;20.98;19.48;;;;;;;31.41;100.00;100939.66;5017595;28;20503;-75
2023/08/24 08:29:34;;;;;;;21.30;19.70;;;;;;;31.70;100.00;100941.38;5018725;28;20045;-75
2023/08/24 08:32:01;;;;;;;23.02;21.33;;;;;;;32.05;100.00;100943.66;5018303;28;20431;-75
2023/08/24 08:34:29;;;;;;;22.58;21.02;;;;;;;32.31;100.00;100946.00;5012965;28;20045;-75
2023/08/24 08:36:57;;;;;;;20.60;19.10;;;;;;;32.10;100.00;100942.63;5011914;28;20469;-80
2023/08/24 08:39:24;;;;;;;21.92;20.42;;;;;;;32.31;100.00;100937.75;5018345;28;20569;-81
2023/08/24 08:41:50;;;;;;;24.08;22.35;;;;;;;31.69;100.00;100937.03;5017379;28;20057;-81
2023/08/24 08:44:19;;;;;;;23.30;21.60;;;;;;;32.09;100.00;100928.09;5019024;28;20060;-80
2023/08/24 08:46:48;;;;;;;22.00;20.40;;;;;;;33.39;100.00;100929.69;5022810;28;20057;-80
2023/08/24 08:49:16;;;;;;;22.63;21.02;;;;;;;34.24;100.00;100927.34;5022241;28;20042;-81
2023/08/24 08:51:45;;;;;;;21.52;19.92;;;;;;;33.34;100.00;100929.94;5020094;28;20100;-80
2023/08/24 08:54:13;;;;;;;22.55;21.05;;;;;;;33.45;100.00;100928.28;5020771;28;20180;-80
2023/08/24 08:56:39;;;;;;;23.80;22.20;;;;;;;31.71;100.00;100928.44;5025958;28;20049;-75
2023/08/24 08:59:09;;;;;;;22.58;21.08;;;;;;;31.73;100.00;100933.59;5025944;28;20068;-75
2023/08/24 09:01:38;;;;;;;20.30;18.70;;;;;;;31.76;100.00;100927.41;5023915;28;20049;-75
2023/08/24 09:04:07;;;;;;;22.30;20.80;;;;;;;32.54;100.00;100934.50;5015541;28;20057;-75
2023/08/24 09:06:35;;;;;;;22.00;20.50;;;;;;;32.27;100.00;100928.63;5024792;28;20045;-75
2023/08/24 09:09:03;;;;;;;23.83;22.23;;;;;;;32.76;100.00;100922.94;5024025;28;20057;-75
2023/08/24 09:11:30;;;;;;;25.10;23.50;;;;;;;32.44;100.00;100924.81;5024964;28;20050;-80
2023/08/24 09:13:59;;;;;;;30.88;28.98;;;;;;;32.19;100.00;100920.50;5018072;28;20101;-81
2023/08/24 09:16:30;;;;;;;30.85;29.05;;;;;;;32.50;100.00;100923.41;5022392;28;20057;-80
2023/08/24 09:18:57;;;;;;;32.72;30.83;;;;;;;33.00;100.00;100913.00;5021309;28;20050;-81
2023/08/24 09:21:24;;;;;;;26.98;25.27;;;;;;;32.50;100.00;100914.34;5018860;28;20069;-80
2023/08/24 09:23:54;;;;;;;28.88;27.13;;;;;;;31.77;100.00;100920.78;5019944;28;20049;-80
2023/08/24 09:26:30;;;;;;;35.40;33.20;;;;;;;31.86;100.00;100916.78;5022253;28;20060;-80
2023/08/24 09:28:57;;;;;;;37.60;35.38;;;;;;;33.48;100.00;100905.53;5010425;28;20076;-81
2023/08/24 09:31:25;;;;;;;37.45;35.25;;;;;;;34.45;100.00;100911.22;5022136;28;20057;-81
2023/08/24 09:34:01;;;;;;;34.55;32.55;;;;;;;34.95;100.00;100903.94;5017074;28;20542;-81
2023/08/24 09:36:27;;;;;;;35.03;33.03;;;;;;;34.49;100.00;100905.78;5018899;28;20046;-81
2023/08/24 09:38:57;;;;;;;36.22;34.03;;;;;;;34.58;100.00;100912.69;5018159;28;20503;-81
2023/08/24 09:41:24;;;;;;;35.95;33.85;;;;;;;34.01;100.00;100903.19;5015254;28;20561;-80
2023/08/24 09:43:52;;;;;;;37.20;35.10;;;;;;;34.36;100.00;100897.66;5019019;28;20050;-81
2023/08/24 09:46:21;;;;;;;28.00;26.30;;;;;;;35.38;100.00;100899.16;5017583;28;20053;-81
2023/08/24 09:48:56;;;;;;;27.52;25.90;;;;;;;35.80;100.00;100887.16;5016390;28;20054;-81
2023/08/24 09:51:24;;;;;;;36.28;34.20;;;;;;;35.63;100.00;100894.00;5014005;28;20045;-81
2023/08/24 09:53:50;;;;;;;31.40;29.55;;;;;;;35.83;100.00;100889.19;5021220;28;20054;-81
2023/08/24 09:56:17;;;;;;;33.92;31.92;;;;;;;34.58;100.00;100890.63;5023055;28;20041;-81
2023/08/24 09:58:47;;;;;;;33.67;31.67;;;;;;;34.22;100.00;100894.63;5022136;28;20416;-80
2023/08/24 10:01:18;;;;;;;32.33;30.52;;;;;;;35.23;100.00;100892.59;5023397;28;20454;-81
2023/08/24 10:03:45;;;;;;;33.20;31.40;;;;;;;36.41;100.00;100887.94;5023764;28;20482;-81
2023/08/24 10:06:14;;;;;;;29.27;27.67;;;;;;;37.51;84.46;100874.34;5018792;28;20095;-81
2023/08/24 10:08:48;;;;;;;33.55;31.75;;;;;;;36.43;96.60;100874.50;5022409;28;20506;-81
2023/08/24 10:11:20;;;;;;;30.05;28.35;;;;;;;35.09;97.50;100875.78;5021676;28;20082;-81
2023/08/24 10:13:54;;;;;;;30.63;28.92;;;;;;;35.00;100.00;100872.47;5023152;28;20053;-82
2023/08/24 10:16:24;;;;;;;33.28;31.38;;;;;;;35.55;97.71;100871.03;5023145;28;20511;-81
2023/08/24 10:18:51;;;;;;;30.73;28.92;;;;;;;36.67;88.38;100860.19;5023072;28;20443;-81
2023/08/24 10:21:19;;;;;;;29.98;28.17;;;;;;;35.53;84.80;100862.28;5020252;28;20069;-81
2023/08/24 10:23:47;;;;;;;31.50;29.70;;;;;;;34.18;100.00;100857.94;5023357;28;20054;-81
2023/08/24 10:26:17;;;;;;;30.90;29.10;;;;;;;36.64;84.64;100849.88;5025972;28;20049;-81
2023/08/24 10:28:45;;;;;;;27.75;26.15;;;;;;;35.82;90.37;100848.09;5020815;28;20152;-81
2023/08/24 10:31:16;;;;;;;34.95;32.95;;;;;;;36.53;86.53;100850.97;5022909;28;20076;-81
2023/08/24 10:33:46;;;;;;;26.25;24.55;;;;;;;34.69;99.34;100855.00;5021996;28;20490;-81
2023/08/24 10:36:14;;;;;;;26.50;24.55;;;;;;;35.26;90.65;100841.38;5021801;28;20050;-81
2023/08/24 10:38:42;;;;;;;27.30;25.60;;;;;;;36.18;89.43;100841.84;5024574;28;20100;-81
2023/08/24 10:41:12;;;;;;;29.65;27.95;;;;;;;35.57;93.99;100834.75;5021751;28;20049;-81
2023/08/24 10:43:40;;;;;;;26.73;25.13;;;;;;;34.91;99.82;100833.28;5021771;28;20103;-81
2023/08/24 10:46:13;;;;;;;25.67;24.08;;;;;;;34.85;100.00;100827.28;5020758;28;20432;-81
2023/08/24 10:48:59;;;;;;;24.17;22.58;;;;;;;37.67;92.02;100818.59;5019446;28;20454;-81
2023/08/24 10:51:27;;;;;;;23.90;22.38;;;;;;;36.88;87.85;100826.34;5020657;28;20076;-81
2023/08/24 10:53:56;;;;;;;25.23;23.63;;;;;;;37.26;82.16;100809.66;5024396;28;20054;-76
2023/08/24 10:56:31;;;;;;;23.50;21.90;;;;;;;37.79;71.19;100807.22;5016192;28;20502;-76
2023/08/24 10:59:14;;;;;;;25.13;23.40;;;;;;;37.76;73.58;100801.63;5023392;28;20046;-75
2023/08/24 11:01:42;;;;;;;24.50;22.83;;;;;;;37.85;81.42;100804.84;5018746;28;20057;-81
2023/08/24 11:04:12;;;;;;;24.02;22.40;;;;;;;37.13;79.20;100809.19;5019816;28;20590;-76
2023/08/24 11:06:53;;;;;;;29.95;28.02;;;;;;;37.25;85.07;100792.28;5026338;28;20057;-75